Time;durP1;ratioP1;P1;durP2;ratioP2;P2;SDS_P1;SDS_P2;PMS_P1;PMS_P2;Temp;Humidity;BMP_temperature;BMP_pressure;BME280_temperature;BME280_humidity;BME280_pressure;Samples;Min_cycle;Max_cycle;Signal;HPM_P1;HPM_P2
2021/12/18 00:00:08;;;;;;;4.13;2.47;;;16.80;99.30;;;;;;1988480;28;20178;-84
2021/12/18 00:01:06;;;;;;;7.05;2.90;;;16.80;99.20;;;;;;1988547;28;20253;-84
2021/12/18 00:02:05;;;;;;;7.40;2.40;;;16.80;99.30;;;;;;1989290;28;20261;-84
2021/12/18 00:03:06;;;;;;;5.57;2.83;;;16.80;99.20;;;;;;1989239;28;20409;-82
2021/12/18 00:04:04;;;;;;;6.05;2.75;;;16.70;99.20;;;;;;1989284;28;20533;-84
2021/12/18 00:05:03;;;;;;;6.70;2.73;;;16.70;99.20;;;;;;1989254;28;20181;-84
2021/12/18 00:06:03;;;;;;;5.37;2.80;;;16.70;99.20;;;;;;1988997;28;20186;-81
2021/12/18 00:07:02;;;;;;;4.78;2.78;;;16.70;99.20;;;;;;1989130;28;20416;-82
2021/12/18 00:08:02;;;;;;;5.50;2.78;;;16.70;99.10;;;;;;1989434;28;20189;-83
2021/12/18 00:09:01;;;;;;;8.95;3.47;;;16.80;99.20;;;;;;1988552;28;20265;-81
2021/12/18 00:10:00;;;;;;;2.50;2.20;;;16.70;99.10;;;;;;1988625;28;20646;-81
2021/12/18 00:10:58;;;;;;;6.60;2.93;;;16.70;99.00;;;;;;1989132;28;20413;-84
2021/12/18 00:11:58;;;;;;;9.10;2.40;;;16.70;99.20;;;;;;1989183;28;20186;-82
2021/12/18 00:12:57;;;;;;;4.10;2.22;;;16.80;99.20;;;;;;1989224;28;20178;-84
2021/12/18 00:13:56;;;;;;;4.20;2.70;;;16.70;99.00;;;;;;1989206;28;20182;-82
2021/12/18 00:14:54;;;;;;;4.80;2.73;;;16.70;99.00;;;;;;1989365;28;20354;-82
2021/12/18 00:15:53;;;;;;;5.13;2.83;;;16.80;99.10;;;;;;1989110;28;20416;-83
2021/12/18 00:16:52;;;;;;;4.07;2.60;;;16.80;99.10;;;;;;1989161;28;20194;-81
2021/12/18 00:17:51;;;;;;;5.93;2.90;;;16.80;99.00;;;;;;1988588;28;20179;-81
2021/12/18 00:18:51;;;;;;;5.07;2.80;;;16.80;99.00;;;;;;1988503;28;20181;-80
2021/12/18 00:19:50;;;;;;;5.82;2.75;;;16.70;98.90;;;;;;1989177;28;20409;-83
2021/12/18 00:20:49;;;;;;;4.73;2.67;;;16.80;99.00;;;;;;1988214;28;20546;-79
2021/12/18 00:21:47;;;;;;;7.23;2.70;;;16.70;98.90;;;;;;1988496;28;20626;-83
2021/12/18 00:22:46;;;;;;;7.03;2.70;;;16.70;99.00;;;;;;1988997;28;20185;-81
2021/12/18 00:23:45;;;;;;;2.73;2.03;;;16.70;99.00;;;;;;1989242;28;20189;-81
2021/12/18 00:24:43;;;;;;;3.97;2.10;;;16.70;98.90;;;;;;1989309;28;20402;-82
2021/12/18 00:25:43;;;;;;;2.60;2.30;;;16.70;99.00;;;;;;1989137;28;20203;-81
2021/12/18 00:26:41;;;;;;;3.78;2.13;;;16.70;98.90;;;;;;1989051;28;20262;-81
2021/12/18 00:27:40;;;;;;;5.03;2.50;;;16.70;98.80;;;;;;1989241;28;20183;-81
2021/12/18 00:28:39;;;;;;;3.60;2.00;;;16.80;98.90;;;;;;1989151;28;20197;-80
2021/12/18 00:29:37;;;;;;;10.30;2.60;;;16.80;98.90;;;;;;1989145;28;20638;-81
2021/12/18 00:30:37;;;;;;;4.43;2.50;;;16.80;99.00;;;;;;1988993;28;20225;-81
2021/12/18 00:31:35;;;;;;;3.85;2.75;;;16.80;98.90;;;;;;1989058;28;20217;-80
2021/12/18 00:32:34;;;;;;;3.70;2.63;;;16.80;98.80;;;;;;1989209;28;20615;-81
2021/12/18 00:33:33;;;;;;;4.80;2.13;;;16.80;98.90;;;;;;1988505;28;20660;-80
2021/12/18 00:34:31;;;;;;;4.17;2.23;;;16.80;98.80;;;;;;1988800;28;20171;-81
2021/12/18 00:35:33;;;;;;;4.23;2.63;;;16.80;98.80;;;;;;1988507;28;20349;-80
2021/12/18 00:36:31;;;;;;;4.05;2.53;;;16.80;98.80;;;;;;1980545;28;20217;-81
2021/12/18 00:37:30;;;;;;;4.93;2.83;;;16.80;98.80;;;;;;1988371;28;20557;-81
2021/12/18 00:38:30;;;;;;;3.70;2.43;;;16.80;98.70;;;;;;1989161;28;20178;-80
2021/12/18 00:39:31;;;;;;;3.58;2.22;;;16.80;98.80;;;;;;1989288;28;20249;-81
2021/12/18 00:40:42;;;;;;;6.13;2.97;;;16.80;98.80;;;;;;1989899;28;20642;-80
2021/12/18 00:43:01;;;;;;;5.10;2.78;;;16.80;98.80;;;;;;1990639;28;20186;-80
2021/12/18 00:44:04;;;;;;;5.40;3.00;;;16.80;98.80;;;;;;1989972;28;20213;-80
2021/12/18 00:45:08;;;;;;;4.90;2.90;;;16.80;98.80;;;;;;1990047;28;20229;-80
2021/12/18 00:46:06;;;;;;;5.18;2.22;;;16.80;98.80;;;;;;1989825;28;20629;-81
2021/12/18 00:47:05;;;;;;;4.70;2.47;;;17.00;98.90;;;;;;1990103;28;20186;-81
2021/12/18 00:48:04;;;;;;;3.20;2.10;;;16.80;98.80;;;;;;1990614;28;20268;-80
2021/12/18 00:49:05;;;;;;;6.50;3.00;;;16.80;98.80;;;;;;1990554;28;20401;-80
2021/12/18 00:50:06;;;;;;;6.00;2.78;;;16.80;98.80;;;;;;1990595;28;20190;-79
2021/12/18 00:51:04;;;;;;;3.75;2.13;;;16.90;98.90;;;;;;1990561;28;20179;-81
2021/12/18 00:52:04;;;;;;;2.80;2.47;;;16.80;98.80;;;;;;1990702;28;20582;-80
2021/12/18 00:53:02;;;;;;;2.70;2.30;;;16.90;98.80;;;;;;1990514;28;20178;-80
2021/12/18 00:54:01;;;;;;;3.07;2.07;;;16.90;98.70;;;;;;1990408;28;20574;-80
2021/12/18 00:55:00;;;;;;;4.82;3.10;;;16.90;98.80;;;;;;1989702;28;20530;-80
2021/12/18 00:55:59;;;;;;;3.77;2.43;;;16.80;98.80;;;;;;1989704;28;20206;-80
2021/12/18 00:56:58;;;;;;;3.50;2.60;;;16.80;98.90;;;;;;1990341;28;20484;-80
2021/12/18 00:57:57;;;;;;;5.43;2.50;;;16.80;98.90;;;;;;1990407;28;20398;-80
2021/12/18 00:58:56;;;;;;;5.90;2.40;;;16.80;98.90;;;;;;1990425;28;20237;-80
2021/12/18 01:00:01;;;;;;;8.00;2.93;;;16.90;98.90;;;;;;1990470;28;20182;-80
2021/12/18 01:00:59;;;;;;;3.75;2.53;;;16.90;98.90;;;;;;1990424;28;20159;-80
2021/12/18 01:01:58;;;;;;;9.30;2.93;;;16.80;99.00;;;;;;1990373;28;20229;-80
2021/12/18 01:03:00;;;;;;;4.87;2.50;;;16.80;98.90;;;;;;1990447;28;20174;-81
2021/12/18 01:03:59;;;;;;;5.00;3.00;;;16.90;99.00;;;;;;1990410;28;20226;-80
2021/12/18 01:04:58;;;;;;;5.07;2.63;;;16.90;98.90;;;;;;1990265;28;20257;-79
2021/12/18 01:05:56;;;;;;;3.93;2.20;;;16.80;99.00;;;;;;1990233;28;20185;-80
2021/12/18 01:06:55;;;;;;;5.23;2.27;;;16.80;98.90;;;;;;1990333;28;20183;-80
2021/12/18 01:07:56;;;;;;;5.57;2.40;;;16.90;99.00;;;;;;1990389;28;20265;-81
2021/12/18 01:08:57;;;;;;;5.53;2.50;;;16.90;99.00;;;;;;1989651;28;20170;-80
2021/12/18 01:11:40;;;;;;;2.90;2.22;;;16.90;99.00;;;;;;1985492;28;20637;-79
2021/12/18 01:12:43;;;;;;;4.28;2.30;;;16.80;99.00;;;;;;1989828;28;20170;-79
2021/12/18 01:16:21;;;;;;;6.03;2.72;;;17.20;99.20;;;;;;1990225;28;20234;-82
2021/12/18 01:23:30;;;;;;;3.58;2.22;;;16.80;99.10;;;;;;1990274;28;20163;-79
2021/12/18 01:24:32;;;;;;;5.10;2.25;;;16.90;99.30;;;;;;1990540;28;20249;-79
2021/12/18 01:25:32;;;;;;;4.57;2.58;;;16.90;99.50;;;;;;1994044;28;20162;-80
2021/12/18 01:26:31;;;;;;;4.03;2.65;;;16.90;99.40;;;;;;1990133;28;20190;-79
2021/12/18 01:27:30;;;;;;;8.30;2.92;;;16.90;99.40;;;;;;1990297;28;20190;-79
2021/12/18 01:28:29;;;;;;;3.67;2.37;;;16.90;99.30;;;;;;1990217;28;20181;-80
2021/12/18 01:29:28;;;;;;;3.28;2.60;;;17.00;99.50;;;;;;1990105;28;20726;-80
2021/12/18 01:30:26;;;;;;;3.70;2.50;;;16.90;99.40;;;;;;1990072;28;20179;-79
2021/12/18 01:31:25;;;;;;;3.30;2.50;;;17.20;99.40;;;;;;1990284;28;20230;-81
2021/12/18 01:32:25;;;;;;;7.37;3.10;;;16.90;99.30;;;;;;1990093;28;20179;-79
2021/12/18 01:33:24;;;;;;;3.30;2.45;;;16.90;99.40;;;;;;1990075;28;20178;-80
2021/12/18 01:34:22;;;;;;;3.63;2.27;;;16.90;99.30;;;;;;1990164;28;20186;-79
2021/12/18 01:35:22;;;;;;;2.97;2.37;;;16.90;99.40;;;;;;1989471;28;20601;-79
2021/12/18 01:36:21;;;;;;;3.83;2.67;;;16.90;99.40;;;;;;1989383;28;20210;-80
2021/12/18 01:37:20;;;;;;;3.55;2.20;;;16.90;99.40;;;;;;1990114;28;20190;-80
2021/12/18 01:38:21;;;;;;;3.00;2.05;;;16.90;99.40;;;;;;1990205;28;20173;-79
2021/12/18 01:39:20;;;;;;;4.07;2.85;;;16.90;99.40;;;;;;1990092;28;20516;-78
2021/12/18 01:40:21;;;;;;;5.33;2.60;;;16.90;99.50;;;;;;1990052;28;20266;-80
2021/12/18 01:41:20;;;;;;;4.63;2.63;;;16.90;99.50;;;;;;1990164;28;20533;-79
2021/12/18 01:46:10;;;;;;;6.03;3.15;;;16.90;99.70;;;;;;1990201;28;20159;-79
2021/12/18 01:52:01;;;;;;;4.78;2.30;;;;;;;;;;1980845;29;20442;-79
2021/12/18 01:52:34;;;;;;;5.50;2.58;;;16.80;99.90;;;;;;1978038;28;20209;-80
2021/12/18 01:53:33;;;;;;;5.47;2.63;;;16.90;99.90;;;;;;1990117;28;20155;-79
2021/12/18 01:54:32;;;;;;;5.00;3.07;;;16.90;99.60;;;;;;1989370;28;20546;-79
2021/12/18 01:55:32;;;;;;;9.13;2.43;;;17.00;99.60;;;;;;1989497;28;20257;-80
2021/12/18 01:56:31;;;;;;;5.72;2.42;;;16.90;99.50;;;;;;1989760;28;20211;-80
2021/12/18 01:57:31;;;;;;;4.70;2.40;;;16.90;99.50;;;;;;1990052;28;20189;-79
2021/12/18 01:58:29;;;;;;;2.95;2.22;;;17.00;99.50;;;;;;1989214;28;20634;-81
2021/12/18 01:59:45;;;;;;;2.63;2.30;;;17.00;99.50;;;;;;1989227;28;20233;-79
2021/12/18 02:00:43;;;;;;;3.30;2.15;;;17.00;99.30;;;;;;1983109;28;20174;-79
2021/12/18 02:01:42;;;;;;;5.00;2.70;;;17.00;99.50;;;;;;1989358;28;20183;-78
2021/12/18 02:02:40;;;;;;;5.40;2.60;;;17.00;99.50;;;;;;1989797;28;20170;-79
2021/12/18 02:03:39;;;;;;;3.63;2.30;;;17.00;99.40;;;;;;1989974;28;20167;-79
2021/12/18 02:04:38;;;;;;;4.90;2.23;;;17.00;99.40;;;;;;1989906;28;20178;-79
2021/12/18 02:05:40;;;;;;;3.03;2.13;;;17.00;99.40;;;;;;1989845;28;20174;-79
2021/12/18 02:06:39;;;;;;;5.43;2.70;;;17.00;99.30;;;;;;1989786;28;20562;-78
2021/12/18 02:07:40;;;;;;;2.83;2.20;;;17.00;99.30;;;;;;1990049;28;20229;-79
2021/12/18 02:08:39;;;;;;;5.80;2.05;;;17.00;99.40;;;;;;1989919;28;20174;-79
2021/12/18 02:10:02;;;;;;;3.47;2.00;;;17.00;99.30;;;;;;1989811;28;20258;-79
2021/12/18 02:11:36;;;;;;;3.58;2.28;;;17.00;99.40;;;;;;1990015;28;20159;-79
2021/12/18 02:12:41;;;;;;;6.65;2.65;;;17.10;99.50;;;;;;1988598;28;20189;-79
2021/12/18 02:21:23;;;;;;;4.90;2.40;;;16.90;99.50;;;;;;1990080;28;20159;-79
2021/12/18 02:22:22;;;;;;;3.60;2.58;;;16.90;99.50;;;;;;1989830;28;20173;-79
2021/12/18 02:23:22;;;;;;;3.25;2.10;;;16.90;99.50;;;;;;1989025;28;20206;-80
2021/12/18 02:24:24;;;;;;;4.60;2.40;;;16.90;99.50;;;;;;1981400;28;20581;-79
2021/12/18 02:25:24;;;;;;;3.30;2.25;;;16.90;99.50;;;;;;1989199;28;20182;-79
2021/12/18 02:26:23;;;;;;;4.00;2.50;;;16.90;99.50;;;;;;1981305;29;20206;-78
2021/12/18 02:27:22;;;;;;;3.83;2.67;;;16.90;99.50;;;;;;1988951;28;20194;-79
2021/12/18 02:28:24;;;;;;;3.77;1.93;;;17.00;99.60;;;;;;1989762;28;20418;-79
2021/12/18 02:29:23;;;;;;;4.57;2.45;;;17.00;99.60;;;;;;1989738;28;20746;-79
2021/12/18 02:30:22;;;;;;;3.90;2.60;;;16.90;99.70;;;;;;1989591;28;20216;-79
2021/12/18 02:31:20;;;;;;;2.87;2.30;;;17.00;99.90;;;;;;1989746;28;20630;-79
2021/12/18 02:32:22;;;;;;;4.43;2.60;;;16.90;98.80;;;;;;1989869;28;20182;-79
2021/12/18 02:33:21;;;;;;;2.75;2.13;;;16.90;98.50;;;;;;1989794;28;20174;-77
2021/12/18 02:34:26;;;;;;;3.42;1.85;;;16.90;99.00;;;;;;1988987;28;20222;-78
2021/12/18 02:35:38;;;;;;;4.80;2.40;;;16.90;98.90;;;;;;1989075;28;20159;-78
2021/12/18 02:36:45;;;;;;;4.95;2.53;;;17.00;98.90;;;;;;1989802;28;20312;-78
2021/12/18 02:37:45;;;;;;;4.00;2.60;;;16.90;98.80;;;;;;1989964;28;20496;-79
2021/12/18 02:39:03;;;;;;;3.20;2.05;;;16.90;98.70;;;;;;1989898;28;20171;-77
2021/12/18 02:42:09;;;;;;;3.70;2.30;;;16.90;98.80;;;;;;1989659;28;20716;-78
2021/12/18 02:43:07;;;;;;;5.75;2.95;;;16.90;98.80;;;;;;1989003;28;20163;-78
2021/12/18 02:44:11;;;;;;;6.37;2.77;;;16.90;98.70;;;;;;1989056;28;20545;-78
2021/12/18 02:45:12;;;;;;;3.50;2.17;;;16.90;98.70;;;;;;1989666;28;20637;-77
2021/12/18 02:46:17;;;;;;;4.50;2.30;;;16.90;98.70;;;;;;1988906;28;20288;-78
2021/12/18 02:47:19;;;;;;;2.85;2.05;;;16.90;98.80;;;;;;1989201;28;20186;-78
2021/12/18 02:48:18;;;;;;;3.33;2.07;;;16.90;98.80;;;;;;1989553;28;20597;-78
2021/12/18 02:49:16;;;;;;;4.33;2.10;;;16.90;98.80;;;;;;1989437;28;20240;-78
2021/12/18 02:50:15;;;;;;;3.13;2.10;;;17.10;98.90;;;;;;1989582;28;20206;-78
2021/12/18 02:51:14;;;;;;;4.77;2.37;;;16.90;98.90;;;;;;1989835;28;20481;-77
2021/12/18 02:52:13;;;;;;;5.55;2.58;;;16.90;98.80;;;;;;1989586;28;20539;-78
2021/12/18 02:53:11;;;;;;;5.40;2.27;;;16.90;98.80;;;;;;1989551;28;20174;-78
2021/12/18 02:54:10;;;;;;;3.27;2.50;;;16.90;98.90;;;;;;1988870;28;20631;-78
2021/12/18 02:55:09;;;;;;;3.40;2.10;;;16.90;99.00;;;;;;1988966;28;20603;-77
2021/12/18 02:56:10;;;;;;;6.10;3.10;;;16.90;99.00;;;;;;1989233;28;20213;-77
2021/12/18 02:57:09;;;;;;;5.38;2.55;;;16.90;99.10;;;;;;1989488;28;20178;-79
2021/12/18 02:58:08;;;;;;;3.20;2.25;;;17.00;99.10;;;;;;1989497;28;20297;-77
2021/12/18 02:59:09;;;;;;;3.77;2.70;;;17.00;99.10;;;;;;1989449;28;20261;-77
2021/12/18 03:00:08;;;;;;;4.93;3.05;;;17.00;99.10;;;;;;1989506;28;20177;-78
2021/12/18 03:01:09;;;;;;;5.10;3.10;;;17.00;99.40;;;;;;1989358;28;20179;-78
2021/12/18 03:02:08;;;;;;;11.75;4.28;;;17.00;99.10;;;;;;1988961;28;20171;-77
2021/12/18 03:03:09;;;;;;;7.00;3.00;;;17.00;99.10;;;;;;1988471;28;20185;-78
2021/12/18 03:04:31;;;;;;;7.00;3.40;;;16.90;99.00;;;;;;1988904;28;20233;-77
2021/12/18 03:05:35;;;;;;;4.93;3.15;;;17.00;99.10;;;;;;1988773;28;20245;-77
2021/12/18 03:06:39;;;;;;;8.82;4.07;;;16.90;99.20;;;;;;1988638;28;20202;-78
2021/12/18 03:07:37;;;;;;;5.25;3.00;;;16.90;99.10;;;;;;1989036;28;20242;-78
2021/12/18 03:08:54;;;;;;;8.33;4.00;;;16.90;99.20;;;;;;1989627;28;20217;-78
2021/12/18 03:22:08;;;;;;;4.97;2.90;;;16.90;98.10;;;;;;1989523;28;20170;-78
2021/12/18 03:23:03;;;;;;;5.00;2.70;;;16.80;98.30;;;;;;1989282;28;20170;-78
2021/12/18 03:25:25;;;;;;;6.30;3.05;;;16.80;98.20;;;;;;1989613;28;20242;-78
2021/12/18 03:26:24;;;;;;;7.22;3.20;;;16.80;98.50;;;;;;1989365;28;20682;-78
2021/12/18 03:27:23;;;;;;;5.73;3.10;;;16.80;98.20;;;;;;1989380;28;20182;-78
2021/12/18 03:28:21;;;;;;;5.63;2.90;;;16.80;98.20;;;;;;1988853;28;20188;-78
2021/12/18 03:29:20;;;;;;;5.47;2.90;;;16.90;98.20;;;;;;1988789;28;20414;-78
2021/12/18 03:30:20;;;;;;;6.03;3.10;;;16.90;98.30;;;;;;1988995;28;20223;-78
2021/12/18 03:31:19;;;;;;;7.50;3.85;;;16.90;98.20;;;;;;1989108;28;20298;-78
2021/12/18 03:32:18;;;;;;;8.03;3.17;;;16.90;98.20;;;;;;1989201;28;20289;-78
2021/12/18 03:33:16;;;;;;;6.97;3.60;;;16.90;98.20;;;;;;1989212;28;20701;-78
2021/12/18 03:34:15;;;;;;;6.50;3.30;;;16.90;98.30;;;;;;1989190;28;20665;-78
2021/12/18 03:35:15;;;;;;;5.00;3.13;;;16.90;98.30;;;;;;1989385;28;20185;-78
2021/12/18 03:36:15;;;;;;;6.88;3.75;;;16.90;98.40;;;;;;1989142;28;20281;-78
2021/12/18 03:37:14;;;;;;;6.45;3.20;;;16.90;98.50;;;;;;1989251;28;20197;-78
2021/12/18 03:38:12;;;;;;;5.43;2.80;;;16.90;98.50;;;;;;1989288;28;20171;-79
2021/12/18 03:39:11;;;;;;;9.80;3.77;;;16.90;98.80;;;;;;1989324;28;20652;-78
2021/12/18 03:40:14;;;;;;;5.90;3.20;;;16.90;99.40;;;;;;1988596;28;20213;-78
2021/12/18 03:41:12;;;;;;;6.25;3.30;;;17.40;99.90;;;;;;1988582;28;20175;-79
2021/12/18 03:42:11;;;;;;;6.53;3.80;;;16.90;99.90;;;;;;1989266;28;20182;-78
2021/12/18 03:43:11;;;;;;;6.03;3.20;;;;;;;;;;1989146;28;20180;-77
2021/12/18 03:44:09;;;;;;;6.68;3.15;;;16.80;99.90;;;;;;1989283;28;20174;-78
2021/12/18 03:45:09;;;;;;;11.53;3.30;;;16.90;97.60;;;;;;1989193;28;20186;-78
2021/12/18 03:46:07;;;;;;;9.30;3.58;;;16.90;97.40;;;;;;1989075;28;20185;-77
2021/12/18 03:47:06;;;;;;;4.80;2.97;;;16.90;97.40;;;;;;1989286;28;20213;-78
2021/12/18 03:48:05;;;;;;;4.78;3.00;;;16.90;97.40;;;;;;1989211;28;20256;-78
2021/12/18 03:49:03;;;;;;;6.23;3.50;;;16.90;97.40;;;;;;1989290;28;20178;-78
2021/12/18 03:50:02;;;;;;;6.30;2.90;;;16.90;97.40;;;;;;1989118;28;20206;-77
2021/12/18 03:51:01;;;;;;;5.10;3.00;;;16.90;97.50;;;;;;1989086;28;20177;-78
2021/12/18 03:52:00;;;;;;;6.03;2.90;;;16.90;97.40;;;;;;1989075;28;20178;-78
2021/12/18 03:52:58;;;;;;;5.70;3.33;;;16.90;97.30;;;;;;1989060;28;20541;-78
2021/12/18 03:53:57;;;;;;;4.80;3.07;;;16.90;97.40;;;;;;1989071;28;20166;-77
2021/12/18 03:54:55;;;;;;;5.23;3.30;;;16.90;97.40;;;;;;1989136;28;20210;-78
2021/12/18 03:55:54;;;;;;;5.60;2.90;;;16.90;97.40;;;;;;1989002;28;20190;-78
2021/12/18 03:56:52;;;;;;;6.33;3.50;;;16.90;97.40;;;;;;1989024;28;20190;-78
2021/12/18 03:57:51;;;;;;;4.57;2.73;;;16.90;97.40;;;;;;1989086;28;20174;-78
2021/12/18 03:58:49;;;;;;;4.53;2.30;;;16.80;97.40;;;;;;1989037;28;20274;-77
2021/12/18 03:59:49;;;;;;;6.70;3.20;;;16.90;97.40;;;;;;1989062;28;20222;-78
2021/12/18 04:00:48;;;;;;;5.80;3.10;;;16.90;97.40;;;;;;1988390;28;20193;-78
2021/12/18 04:01:47;;;;;;;5.53;2.77;;;16.90;97.40;;;;;;1988489;28;20218;-77
2021/12/18 04:02:46;;;;;;;6.05;3.20;;;16.90;97.40;;;;;;1988969;28;20178;-78
2021/12/18 04:03:44;;;;;;;4.63;2.60;;;16.90;97.50;;;;;;1989249;28;20194;-77
2021/12/18 04:04:43;;;;;;;4.40;2.57;;;16.90;97.40;;;;;;1988252;28;20224;-78
2021/12/18 04:05:41;;;;;;;7.67;3.23;;;16.90;97.40;;;;;;1988650;28;20266;-77
2021/12/18 04:06:41;;;;;;;4.13;2.90;;;16.90;97.40;;;;;;1988902;28;20268;-77
2021/12/18 04:07:42;;;;;;;5.35;2.95;;;16.80;97.30;;;;;;1989127;28;20629;-78
2021/12/18 04:08:41;;;;;;;7.47;2.53;;;16.90;97.40;;;;;;1988339;28;20659;-78
2021/12/18 04:09:39;;;;;;;5.23;2.77;;;16.80;97.40;;;;;;1988584;28;20190;-77
2021/12/18 04:10:39;;;;;;;4.77;2.67;;;16.80;97.40;;;;;;1989038;28;20251;-78
2021/12/18 04:11:39;;;;;;;4.38;2.30;;;16.80;97.50;;;;;;1988970;28;20229;-77
2021/12/18 04:12:38;;;;;;;6.25;3.13;;;16.80;97.60;;;;;;1988985;28;20233;-78
2021/12/18 04:13:37;;;;;;;3.80;2.67;;;16.80;97.60;;;;;;1988879;28;20182;-78
2021/12/18 04:14:35;;;;;;;4.53;2.30;;;16.80;97.60;;;;;;1989132;28;20652;-78
2021/12/18 04:15:35;;;;;;;5.70;2.73;;;16.80;97.60;;;;;;1989165;28;20193;-78
2021/12/18 04:16:34;;;;;;;5.75;2.75;;;16.80;97.70;;;;;;1988952;28;20237;-77
2021/12/18 04:17:33;;;;;;;4.40;2.47;;;16.80;97.60;;;;;;1989195;28;20177;-78
2021/12/18 04:18:31;;;;;;;4.70;2.70;;;16.80;97.60;;;;;;1989004;28;20649;-77
2021/12/18 04:19:30;;;;;;;4.87;3.07;;;16.80;97.50;;;;;;1988939;28;20520;-78
2021/12/18 04:20:29;;;;;;;4.23;2.47;;;16.80;97.60;;;;;;1988974;28;20193;-77
2021/12/18 04:21:31;;;;;;;4.90;2.57;;;16.80;97.60;;;;;;1988357;28;20182;-77
2021/12/18 04:22:30;;;;;;;4.32;2.65;;;16.80;97.90;;;;;;1988378;28;20167;-78
2021/12/18 04:23:29;;;;;;;4.70;2.40;;;16.90;97.70;;;;;;1989123;28;20178;-78
2021/12/18 04:24:27;;;;;;;3.10;1.93;;;16.80;97.60;;;;;;1989003;28;20262;-78
2021/12/18 04:25:26;;;;;;;4.50;2.67;;;16.80;97.60;;;;;;1989013;28;20175;-77
2021/12/18 04:26:25;;;;;;;3.83;2.60;;;16.80;97.70;;;;;;1989010;28;20293;-77
2021/12/18 04:27:23;;;;;;;5.60;2.97;;;16.80;97.60;;;;;;1988998;28;20171;-77
2021/12/18 04:28:23;;;;;;;3.33;2.10;;;16.80;97.60;;;;;;1989152;28;20282;-78
2021/12/18 04:29:22;;;;;;;4.35;2.30;;;16.80;97.70;;;;;;1988948;28;20171;-77
2021/12/18 04:30:20;;;;;;;9.60;3.27;;;16.90;97.80;;;;;;1988763;28;20201;-77
2021/12/18 04:31:19;;;;;;;3.90;2.40;;;16.80;97.70;;;;;;1988938;28;20174;-78
2021/12/18 04:32:17;;;;;;;4.93;2.60;;;16.80;97.70;;;;;;1988959;28;20197;-78
2021/12/18 04:33:16;;;;;;;5.30;3.00;;;16.80;97.70;;;;;;1989080;28;20201;-78
2021/12/18 04:34:15;;;;;;;4.07;2.67;;;16.80;97.80;;;;;;1989054;28;20194;-77
2021/12/18 04:35:13;;;;;;;6.07;1.97;;;16.80;97.70;;;;;;1988965;28;20206;-78
2021/12/18 04:36:12;;;;;;;3.80;2.37;;;16.80;97.80;;;;;;1988770;28;20649;-78
2021/12/18 04:37:10;;;;;;;4.90;2.80;;;16.80;97.80;;;;;;1989014;28;20182;-77
2021/12/18 04:38:09;;;;;;;4.93;2.60;;;16.80;97.80;;;;;;1989059;28;20213;-78
2021/12/18 04:39:07;;;;;;;4.40;2.80;;;16.80;97.80;;;;;;1988326;28;20259;-78
2021/12/18 04:40:07;;;;;;;4.53;2.47;;;16.80;97.80;;;;;;1988486;28;20182;-77
2021/12/18 04:41:06;;;;;;;5.93;2.38;;;16.80;97.80;;;;;;1988772;28;20266;-78
2021/12/18 04:42:05;;;;;;;5.57;2.63;;;16.80;97.80;;;;;;1989136;28;20190;-78
2021/12/18 04:43:04;;;;;;;2.97;2.23;;;16.80;97.90;;;;;;1988970;28;20495;-78
2021/12/18 04:44:03;;;;;;;5.03;2.30;;;16.80;97.90;;;;;;1988874;28;20177;-78
2021/12/18 04:45:03;;;;;;;5.55;2.90;;;16.80;98.00;;;;;;1988912;28;20834;-77
2021/12/18 04:46:04;;;;;;;4.85;3.28;;;16.80;97.80;;;;;;1988726;28;20519;-77
2021/12/18 04:47:03;;;;;;;4.55;2.55;;;16.80;98.00;;;;;;1988942;28;20186;-78
2021/12/18 04:48:03;;;;;;;4.07;2.72;;;16.80;98.20;;;;;;1988886;28;20179;-77
2021/12/18 04:49:01;;;;;;;7.57;2.63;;;16.80;98.20;;;;;;1988790;28;20236;-77
2021/12/18 04:50:00;;;;;;;5.20;2.50;;;16.80;98.20;;;;;;1988960;28;20666;-78
2021/12/18 04:50:58;;;;;;;3.90;2.90;;;16.80;98.40;;;;;;1989021;28;20221;-77
2021/12/18 04:51:57;;;;;;;3.43;2.17;;;16.80;98.40;;;;;;1988921;28;20198;-78
2021/12/18 04:52:55;;;;;;;6.00;3.00;;;16.80;98.40;;;;;;1988942;28;20186;-77
2021/12/18 04:53:54;;;;;;;4.30;2.20;;;16.80;98.40;;;;;;1988780;28;20179;-78
2021/12/18 04:54:52;;;;;;;6.00;2.47;;;16.80;98.40;;;;;;1988976;28;20186;-78
2021/12/18 04:55:51;;;;;;;4.80;2.30;;;16.80;98.40;;;;;;1988310;28;20249;-77
2021/12/18 04:56:49;;;;;;;4.30;2.07;;;16.80;98.50;;;;;;1988031;28;20214;-78
2021/12/18 04:57:49;;;;;;;4.00;2.53;;;16.80;98.60;;;;;;1988222;28;20224;-78
2021/12/18 04:58:47;;;;;;;4.82;2.35;;;16.80;98.50;;;;;;1988852;28;20590;-78
2021/12/18 04:59:46;;;;;;;6.70;3.00;;;16.80;98.50;;;;;;1988950;28;20178;-77
2021/12/18 05:00:47;;;;;;;4.60;2.67;;;16.80;98.60;;;;;;1988840;28;20167;-77
2021/12/18 05:01:45;;;;;;;7.68;3.05;;;16.80;98.60;;;;;;1988852;28;20175;-78
2021/12/18 05:02:45;;;;;;;5.33;2.83;;;16.80;98.70;;;;;;1988869;28;20177;-77
2021/12/18 05:03:46;;;;;;;3.42;2.00;;;16.80;98.60;;;;;;1989015;28;20163;-78
2021/12/18 05:04:44;;;;;;;5.10;2.50;;;16.80;98.60;;;;;;1988832;28;20189;-78
2021/12/18 05:05:43;;;;;;;3.13;2.10;;;16.80;98.60;;;;;;1988864;28;20197;-78
2021/12/18 05:06:45;;;;;;;4.03;2.23;;;16.70;98.60;;;;;;1988860;28;20197;-78
2021/12/18 05:07:44;;;;;;;3.90;2.05;;;16.80;98.70;;;;;;1988148;28;21027;-77
2021/12/18 05:08:42;;;;;;;4.77;2.33;;;16.80;98.70;;;;;;1988522;28;20576;-78
2021/12/18 05:09:41;;;;;;;3.87;2.47;;;16.80;98.80;;;;;;1988743;28;20175;-78
2021/12/18 05:10:40;;;;;;;3.40;2.33;;;16.80;98.80;;;;;;1988795;28;20229;-78
2021/12/18 05:11:40;;;;;;;2.63;2.23;;;16.80;98.80;;;;;;1989006;28;20441;-78
2021/12/18 05:12:39;;;;;;;4.22;2.30;;;16.80;98.70;;;;;;1988758;28;20228;-78
2021/12/18 05:13:37;;;;;;;5.45;2.90;;;16.80;98.80;;;;;;1988849;28;20543;-77
2021/12/18 05:14:36;;;;;;;3.13;1.83;;;16.80;98.90;;;;;;1988797;28;20194;-77
2021/12/18 05:15:35;;;;;;;4.20;2.40;;;16.80;98.80;;;;;;1988845;28;20230;-78
2021/12/18 05:16:33;;;;;;;3.37;2.07;;;16.80;98.90;;;;;;1988770;28;20265;-78
2021/12/18 05:17:32;;;;;;;4.17;2.40;;;16.80;98.90;;;;;;1988921;28;20689;-78
2021/12/18 05:18:32;;;;;;;2.83;2.00;;;16.80;98.90;;;;;;1988863;28;20178;-77
2021/12/18 05:19:31;;;;;;;2.35;1.92;;;16.80;99.00;;;;;;1988744;28;20209;-78
2021/12/18 05:20:29;;;;;;;4.10;2.40;;;16.80;99.20;;;;;;1988744;28;20178;-77
2021/12/18 05:21:28;;;;;;;2.67;2.10;;;16.80;99.40;;;;;;1988728;28;20174;-78
2021/12/18 05:22:26;;;;;;;5.20;2.30;;;16.80;99.40;;;;;;1988887;28;20229;-77
2021/12/18 05:23:25;;;;;;;4.50;2.40;;;16.70;99.30;;;;;;1988840;28;20185;-78
2021/12/18 05:24:23;;;;;;;5.57;2.70;;;16.80;99.60;;;;;;1988825;28;20185;-77
2021/12/18 05:25:22;;;;;;;4.23;2.40;;;16.70;99.90;;;;;;1988057;28;20186;-77
2021/12/18 05:26:20;;;;;;;5.77;2.60;;;16.70;98.90;;;;;;1981512;29;20294;-76
2021/12/18 05:27:19;;;;;;;2.57;2.20;;;16.70;97.60;;;;;;1989155;28;20197;-77
2021/12/18 05:28:18;;;;;;;3.00;1.90;;;16.70;97.50;;;;;;1990172;28;20185;-77
2021/12/18 05:29:17;;;;;;;6.28;2.83;;;16.80;97.50;;;;;;1990303;28;20730;-77
2021/12/18 05:30:16;;;;;;;5.90;2.20;;;16.80;97.40;;;;;;1990081;28;20329;-77
2021/12/18 05:31:17;;;;;;;3.60;2.65;;;16.70;97.30;;;;;;1990088;28;20209;-77
2021/12/18 05:32:15;;;;;;;2.50;2.30;;;16.80;97.70;;;;;;1990090;28;20189;-77
2021/12/18 05:33:14;;;;;;;3.40;2.10;;;16.70;97.30;;;;;;1990432;28;20183;-77
2021/12/18 05:34:20;;;;;;;4.30;2.67;;;16.80;97.40;;;;;;1990117;28;20178;-77
2021/12/18 05:35:19;;;;;;;4.10;2.35;;;16.80;97.40;;;;;;1990052;28;20170;-77
2021/12/18 05:37:49;;;;;;;4.55;2.80;;;16.70;97.30;;;;;;1981766;28;20223;-77
2021/12/18 05:38:47;;;;;;;4.95;2.63;;;16.70;97.40;;;;;;1989455;28;20155;-77
2021/12/18 05:39:48;;;;;;;5.73;2.47;;;16.70;97.30;;;;;;1989537;28;20211;-77
2021/12/18 05:40:47;;;;;;;5.25;2.05;;;16.70;97.40;;;;;;1990198;28;20166;-77
2021/12/18 05:41:50;;;;;;;3.60;2.10;;;16.70;97.40;;;;;;1990063;28;20179;-77
2021/12/18 05:42:50;;;;;;;4.20;2.45;;;16.70;97.40;;;;;;1990147;28;20163;-76
2021/12/18 05:43:49;;;;;;;2.45;1.90;;;16.80;97.50;;;;;;1990151;28;20182;-76
2021/12/18 05:44:47;;;;;;;5.57;2.50;;;16.70;97.40;;;;;;1990088;28;20171;-76
2021/12/18 05:45:46;;;;;;;4.00;2.33;;;16.70;97.30;;;;;;1989318;28;20241;-76
2021/12/18 05:46:46;;;;;;;5.17;2.27;;;16.70;97.30;;;;;;1989405;28;20214;-77
2021/12/18 05:47:46;;;;;;;3.00;2.08;;;16.70;97.30;;;;;;1990057;28;20473;-77
2021/12/18 05:48:44;;;;;;;4.32;2.83;;;16.70;97.30;;;;;;1989978;28;20186;-76
2021/12/18 05:49:43;;;;;;;3.80;2.20;;;16.70;97.30;;;;;;1990106;28;20321;-76
2021/12/18 05:50:45;;;;;;;2.77;2.00;;;16.70;97.20;;;;;;1990297;28;20201;-76
2021/12/18 05:51:44;;;;;;;3.65;2.50;;;16.70;97.30;;;;;;1989993;28;20178;-77
2021/12/18 05:52:45;;;;;;;3.30;1.90;;;16.80;97.40;;;;;;1989957;28;20185;-77
2021/12/18 05:53:44;;;;;;;6.30;1.75;;;16.70;97.20;;;;;;1989964;28;20500;-77
2021/12/18 05:54:42;;;;;;;3.00;1.73;;;16.70;97.20;;;;;;1989884;28;20642;-77
2021/12/18 05:55:41;;;;;;;3.10;1.87;;;16.70;97.10;;;;;;1990041;28;20174;-76
2021/12/18 05:56:40;;;;;;;6.30;2.07;;;16.70;97.10;;;;;;1989810;28;20260;-77